Falls Of Rough, Kentucky
Current Conditions -  °F | °C
As of 5:58 PM on Saturday 25 Oct 2014 (Local Time) from KFTK Reporting Station
Clear Clear  
Wind Chill: 68°   Ceiling: Unl
Heat Index: 68°   Visibility: 10mi
Dew Point: 57°   Wind: 3mph
Humidity: 67%   Direction: 230°SW
Pressure: 29.97"   Gusts: NA
Location:  37.57°N, 86.48°W
Report Text: KFTK 252258Z AUTO 23003KT 10SM CLR 20/14 A2997 RMK AO2 SLP150 T02010139
Loading
Personal Weather Stations






























Interactive Weather Map
Tropical Storm Tracking
New forecast layout! Learn more

10-Day Weather Forecast

Advertisements
Track Severe Weather on mobile